sensor_id;sensor_type;location;lat;lon;timestamp;temperature;humidity
23609;DHT22;11982;50.810;4.442;2023-05-16T00:02:16;8.80;99.90
23609;DHT22;11982;50.810;4.442;2023-05-16T00:04:42;8.70;99.90
23609;DHT22;11982;50.810;4.442;2023-05-16T00:07:08;8.70;99.90
23609;DHT22;11982;50.810;4.442;2023-05-16T00:09:33;8.70;99.90
23609;DHT22;11982;50.810;4.442;2023-05-16T00:11:59;8.60;99.90
23609;DHT22;11982;50.810;4.442;2023-05-16T00:14:25;8.60;99.90
23609;DHT22;11982;50.810;4.442;2023-05-16T00:16:54;8.50;99.90
23609;DHT22;11982;50.810;4.442;2023-05-16T00:19:22;8.50;99.90
23609;DHT22;11982;50.810;4.442;2023-05-16T00:21:48;8.50;99.90
23609;DHT22;11982;50.810;4.442;2023-05-16T00:24:14;8.40;99.90
23609;DHT22;11982;50.810;4.442;2023-05-16T00:26:40;8.30;99.90
23609;DHT22;11982;50.810;4.442;2023-05-16T00:29:05;8.40;99.90
23609;DHT22;11982;50.810;4.442;2023-05-16T00:31:31;8.30;99.90
23609;DHT22;11982;50.810;4.442;2023-05-16T00:33:57;8.30;99.90
23609;DHT22;11982;50.810;4.442;2023-05-16T00:36:23;8.30;99.90
23609;DHT22;11982;50.810;4.442;2023-05-16T00:38:48;8.30;99.90
23609;DHT22;11982;50.810;4.442;2023-05-16T00:41:15;8.20;99.90
23609;DHT22;11982;50.810;4.442;2023-05-16T00:43:41;8.20;99.90
23609;DHT22;11982;50.810;4.442;2023-05-16T00:46:07;8.10;99.90
23609;DHT22;11982;50.810;4.442;2023-05-16T00:48:33;8.10;99.90
23609;DHT22;11982;50.810;4.442;2023-05-16T00:50:59;8.00;99.90
23609;DHT22;11982;50.810;4.442;2023-05-16T00:53:25;8.00;99.90
23609;DHT22;11982;50.810;4.442;2023-05-16T00:55:51;8.00;99.90
23609;DHT22;11982;50.810;4.442;2023-05-16T00:58:17;8.00;99.90
23609;DHT22;11982;50.810;4.442;2023-05-16T01:00:44;8.00;99.90
23609;DHT22;11982;50.810;4.442;2023-05-16T01:03:11;8.00;99.90
23609;DHT22;11982;50.810;4.442;2023-05-16T01:05:37;8.00;99.90
23609;DHT22;11982;50.810;4.442;2023-05-16T01:08:03;8.00;99.90
23609;DHT22;11982;50.810;4.442;2023-05-16T01:10:38;7.90;99.90
23609;DHT22;11982;50.810;4.442;2023-05-16T01:13:08;7.90;99.90
23609;DHT22;11982;50.810;4.442;2023-05-16T01:16:04;7.90;99.90
23609;DHT22;11982;50.810;4.442;2023-05-16T01:18:37;7.90;99.90
23609;DHT22;11982;50.810;4.442;2023-05-16T01:21:13;7.90;99.90
23609;DHT22;11982;50.810;4.442;2023-05-16T01:26:23;7.90;99.90
23609;DHT22;11982;50.810;4.442;2023-05-16T01:28:51;7.80;99.90
23609;DHT22;11982;50.810;4.442;2023-05-16T01:31:18;7.70;99.90
23609;DHT22;11982;50.810;4.442;2023-05-16T01:33:44;7.80;99.90
23609;DHT22;11982;50.810;4.442;2023-05-16T01:44:34;7.60;99.90
23609;DHT22;11982;50.810;4.442;2023-05-16T01:47:02;7.60;99.90
23609;DHT22;11982;50.810;4.442;2023-05-16T01:52:31;7.60;99.90
23609;DHT22;11982;50.810;4.442;2023-05-16T01:54:59;7.60;99.90
23609;DHT22;11982;50.810;4.442;2023-05-16T01:57:28;7.60;99.90
23609;DHT22;11982;50.810;4.442;2023-05-16T01:59:56;7.50;99.90
23609;DHT22;11982;50.810;4.442;2023-05-16T02:02:22;7.40;99.90
23609;DHT22;11982;50.810;4.442;2023-05-16T02:04:47;7.40;99.90
23609;DHT22;11982;50.810;4.442;2023-05-16T02:07:13;7.40;99.90
23609;DHT22;11982;50.810;4.442;2023-05-16T02:09:40;7.40;99.90
23609;DHT22;11982;50.810;4.442;2023-05-16T02:12:05;7.30;99.90
23609;DHT22;11982;50.810;4.442;2023-05-16T02:14:31;7.30;99.90
23609;DHT22;11982;50.810;4.442;2023-05-16T02:16:57;7.40;99.90
23609;DHT22;11982;50.810;4.442;2023-05-16T02:19:23;7.40;99.90
23609;DHT22;11982;50.810;4.442;2023-05-16T02:21:49;7.30;99.90
23609;DHT22;11982;50.810;4.442;2023-05-16T02:24:15;7.20;99.90
23609;DHT22;11982;50.810;4.442;2023-05-16T02:26:41;7.20;99.90
23609;DHT22;11982;50.810;4.442;2023-05-16T02:29:07;7.10;99.90
23609;DHT22;11982;50.810;4.442;2023-05-16T02:31:33;7.10;99.90
23609;DHT22;11982;50.810;4.442;2023-05-16T02:33:59;7.10;99.90
23609;DHT22;11982;50.810;4.442;2023-05-16T02:36:25;7.10;99.90
23609;DHT22;11982;50.810;4.442;2023-05-16T02:38:51;7.10;99.90
23609;DHT22;11982;50.810;4.442;2023-05-16T02:41:17;7.00;99.90
23609;DHT22;11982;50.810;4.442;2023-05-16T02:43:43;7.00;99.90
23609;DHT22;11982;50.810;4.442;2023-05-16T02:46:23;7.10;99.90
23609;DHT22;11982;50.810;4.442;2023-05-16T02:48:50;7.10;99.90
23609;DHT22;11982;50.810;4.442;2023-05-16T02:51:16;7.10;99.90
23609;DHT22;11982;50.810;4.442;2023-05-16T02:53:42;7.10;99.90
23609;DHT22;11982;50.810;4.442;2023-05-16T02:56:08;7.10;99.90
23609;DHT22;11982;50.810;4.442;2023-05-16T02:58:34;7.10;99.90
23609;DHT22;11982;50.810;4.442;2023-05-16T03:01:00;7.00;99.90
23609;DHT22;11982;50.810;4.442;2023-05-16T03:03:26;7.00;99.90
23609;DHT22;11982;50.810;4.442;2023-05-16T03:05:51;6.90;99.90
23609;DHT22;11982;50.810;4.442;2023-05-16T03:08:17;6.90;99.90
23609;DHT22;11982;50.810;4.442;2023-05-16T03:10:43;7.00;99.90
23609;DHT22;11982;50.810;4.442;2023-05-16T03:13:09;6.90;99.90
23609;DHT22;11982;50.810;4.442;2023-05-16T03:15:34;7.00;99.90
23609;DHT22;11982;50.810;4.442;2023-05-16T03:18:00;7.00;99.90
23609;DHT22;11982;50.810;4.442;2023-05-16T03:20:26;7.00;99.90
23609;DHT22;11982;50.810;4.442;2023-05-16T03:22:51;7.10;99.90
23609;DHT22;11982;50.810;4.442;2023-05-16T03:25:17;7.00;99.90
23609;DHT22;11982;50.810;4.442;2023-05-16T03:27:43;6.90;99.90
23609;DHT22;11982;50.810;4.442;2023-05-16T03:30:09;6.80;99.90
23609;DHT22;11982;50.810;4.442;2023-05-16T03:32:37;6.90;99.90
23609;DHT22;11982;50.810;4.442;2023-05-16T03:35:03;7.00;99.90
23609;DHT22;11982;50.810;4.442;2023-05-16T03:37:28;7.00;99.90
23609;DHT22;11982;50.810;4.442;2023-05-16T03:39:54;6.90;99.90
23609;DHT22;11982;50.810;4.442;2023-05-16T03:42:20;6.90;99.90
23609;DHT22;11982;50.810;4.442;2023-05-16T03:44:46;7.00;99.90
23609;DHT22;11982;50.810;4.442;2023-05-16T03:47:11;7.00;99.90
23609;DHT22;11982;50.810;4.442;2023-05-16T03:49:37;7.10;99.90
23609;DHT22;11982;50.810;4.442;2023-05-16T03:52:04;7.10;99.90
23609;DHT22;11982;50.810;4.442;2023-05-16T03:54:30;7.30;99.90
23609;DHT22;11982;50.810;4.442;2023-05-16T03:56:55;7.30;99.90
23609;DHT22;11982;50.810;4.442;2023-05-16T03:59:21;7.30;99.90
23609;DHT22;11982;50.810;4.442;2023-05-16T04:01:47;7.40;99.90
23609;DHT22;11982;50.810;4.442;2023-05-16T04:04:13;7.50;99.90
23609;DHT22;11982;50.810;4.442;2023-05-16T04:06:39;7.50;99.90
23609;DHT22;11982;50.810;4.442;2023-05-16T04:09:05;7.40;99.90
23609;DHT22;11982;50.810;4.442;2023-05-16T04:11:34;7.40;99.90
23609;DHT22;11982;50.810;4.442;2023-05-16T04:14:00;7.30;99.90
23609;DHT22;11982;50.810;4.442;2023-05-16T04:16:26;7.20;99.90
23609;DHT22;11982;50.810;4.442;2023-05-16T04:18:52;7.20;99.90
23609;DHT22;11982;50.810;4.442;2023-05-16T04:21:17;7.30;99.90
23609;DHT22;11982;50.810;4.442;2023-05-16T04:23:43;7.30;99.90
23609;DHT22;11982;50.810;4.442;2023-05-16T04:26:09;7.50;99.90
23609;DHT22;11982;50.810;4.442;2023-05-16T04:28:35;7.50;99.90
23609;DHT22;11982;50.810;4.442;2023-05-16T04:31:01;7.40;99.90
23609;DHT22;11982;50.810;4.442;2023-05-16T04:33:26;7.40;99.90
23609;DHT22;11982;50.810;4.442;2023-05-16T04:35:52;7.50;99.90
23609;DHT22;11982;50.810;4.442;2023-05-16T04:38:19;7.50;99.90
23609;DHT22;11982;50.810;4.442;2023-05-16T04:40:45;7.30;99.90
23609;DHT22;11982;50.810;4.442;2023-05-16T04:43:10;7.30;99.90
23609;DHT22;11982;50.810;4.442;2023-05-16T04:45:36;7.30;99.90
23609;DHT22;11982;50.810;4.442;2023-05-16T04:48:02;7.20;99.90
23609;DHT22;11982;50.810;4.442;2023-05-16T04:50:28;7.30;99.90
23609;DHT22;11982;50.810;4.442;2023-05-16T04:52:54;7.30;99.90
23609;DHT22;11982;50.810;4.442;2023-05-16T04:55:19;7.40;99.90
23609;DHT22;11982;50.810;4.442;2023-05-16T04:57:45;7.50;99.90
23609;DHT22;11982;50.810;4.442;2023-05-16T05:00:11;7.60;99.90
23609;DHT22;11982;50.810;4.442;2023-05-16T05:02:38;7.60;99.90
23609;DHT22;11982;50.810;4.442;2023-05-16T05:05:04;7.60;99.90
23609;DHT22;11982;50.810;4.442;2023-05-16T05:07:31;7.70;99.90
23609;DHT22;11982;50.810;4.442;2023-05-16T05:09:57;7.60;99.90
23609;DHT22;11982;50.810;4.442;2023-05-16T05:12:23;7.70;99.90
23609;DHT22;11982;50.810;4.442;2023-05-16T05:14:49;7.80;99.90
23609;DHT22;11982;50.810;4.442;2023-05-16T05:17:16;7.90;99.90
23609;DHT22;11982;50.810;4.442;2023-05-16T05:19:42;7.90;99.90
23609;DHT22;11982;50.810;4.442;2023-05-16T05:22:08;8.10;99.90
23609;DHT22;11982;50.810;4.442;2023-05-16T05:24:34;8.20;99.90
23609;DHT22;11982;50.810;4.442;2023-05-16T05:27:00;8.10;99.90
23609;DHT22;11982;50.810;4.442;2023-05-16T05:29:26;8.20;99.90
23609;DHT22;11982;50.810;4.442;2023-05-16T05:31:51;8.30;99.90
23609;DHT22;11982;50.810;4.442;2023-05-16T05:34:17;8.30;99.90
23609;DHT22;11982;50.810;4.442;2023-05-16T05:36:43;8.40;99.90
23609;DHT22;11982;50.810;4.442;2023-05-16T05:39:09;8.50;99.90
23609;DHT22;11982;50.810;4.442;2023-05-16T05:41:35;8.60;99.90
23609;DHT22;11982;50.810;4.442;2023-05-16T05:44:01;8.70;99.90
23609;DHT22;11982;50.810;4.442;2023-05-16T05:46:27;8.70;99.90
23609;DHT22;11982;50.810;4.442;2023-05-16T05:48:53;8.90;99.90
23609;DHT22;11982;50.810;4.442;2023-05-16T05:51:19;8.90;99.90
23609;DHT22;11982;50.810;4.442;2023-05-16T05:53:45;9.00;99.90
23609;DHT22;11982;50.810;4.442;2023-05-16T05:56:11;9.00;99.90
23609;DHT22;11982;50.810;4.442;2023-05-16T05:58:38;9.10;99.90
23609;DHT22;11982;50.810;4.442;2023-05-16T06:01:03;9.10;99.90
23609;DHT22;11982;50.810;4.442;2023-05-16T06:03:29;9.20;99.90
23609;DHT22;11982;50.810;4.442;2023-05-16T06:05:55;9.30;99.90
23609;DHT22;11982;50.810;4.442;2023-05-16T06:08:21;9.40;99.90
23609;DHT22;11982;50.810;4.442;2023-05-16T06:10:46;9.50;99.90
23609;DHT22;11982;50.810;4.442;2023-05-16T06:13:12;9.60;99.90
23609;DHT22;11982;50.810;4.442;2023-05-16T06:15:38;9.80;99.90
23609;DHT22;11982;50.810;4.442;2023-05-16T06:18:03;9.80;99.90
23609;DHT22;11982;50.810;4.442;2023-05-16T06:20:29;9.90;99.90
23609;DHT22;11982;50.810;4.442;2023-05-16T06:22:55;10.00;99.90
23609;DHT22;11982;50.810;4.442;2023-05-16T06:25:20;9.90;99.90
23609;DHT22;11982;50.810;4.442;2023-05-16T06:27:46;10.00;99.90
23609;DHT22;11982;50.810;4.442;2023-05-16T06:30:12;10.30;99.90
23609;DHT22;11982;50.810;4.442;2023-05-16T06:32:38;10.30;99.90
23609;DHT22;11982;50.810;4.442;2023-05-16T06:35:06;10.30;99.90
23609;DHT22;11982;50.810;4.442;2023-05-16T06:37:32;10.40;99.90
23609;DHT22;11982;50.810;4.442;2023-05-16T06:39:58;10.50;99.90
23609;DHT22;11982;50.810;4.442;2023-05-16T06:42:24;10.40;99.90
23609;DHT22;11982;50.810;4.442;2023-05-16T06:44:49;10.50;99.90
23609;DHT22;11982;50.810;4.442;2023-05-16T06:47:15;10.50;99.90
23609;DHT22;11982;50.810;4.442;2023-05-16T06:49:41;10.60;99.90
23609;DHT22;11982;50.810;4.442;2023-05-16T06:52:07;10.70;99.90
23609;DHT22;11982;50.810;4.442;2023-05-16T06:54:32;10.70;99.90
23609;DHT22;11982;50.810;4.442;2023-05-16T06:56:58;10.90;99.90
23609;DHT22;11982;50.810;4.442;2023-05-16T06:59:24;11.00;99.90
23609;DHT22;11982;50.810;4.442;2023-05-16T07:01:49;11.20;99.90
23609;DHT22;11982;50.810;4.442;2023-05-16T07:04:15;11.10;99.90
23609;DHT22;11982;50.810;4.442;2023-05-16T07:06:41;11.10;99.90
23609;DHT22;11982;50.810;4.442;2023-05-16T07:09:06;11.20;99.90
23609;DHT22;11982;50.810;4.442;2023-05-16T07:11:32;11.10;99.90
23609;DHT22;11982;50.810;4.442;2023-05-16T07:13:58;11.00;99.90
23609;DHT22;11982;50.810;4.442;2023-05-16T07:16:23;10.90;99.90
23609;DHT22;11982;50.810;4.442;2023-05-16T07:18:52;11.10;99.90
23609;DHT22;11982;50.810;4.442;2023-05-16T07:21:18;10.80;99.90
23609;DHT22;11982;50.810;4.442;2023-05-16T07:23:44;10.80;99.90
23609;DHT22;11982;50.810;4.442;2023-05-16T07:26:09;10.90;99.90
23609;DHT22;11982;50.810;4.442;2023-05-16T07:28:35;11.00;99.90
23609;DHT22;11982;50.810;4.442;2023-05-16T07:31:01;11.20;99.90
23609;DHT22;11982;50.810;4.442;2023-05-16T07:33:27;11.50;99.90
23609;DHT22;11982;50.810;4.442;2023-05-16T07:35:52;11.60;99.90
23609;DHT22;11982;50.810;4.442;2023-05-16T07:38:20;11.30;99.90
23609;DHT22;11982;50.810;4.442;2023-05-16T07:40:46;11.30;99.90
23609;DHT22;11982;50.810;4.442;2023-05-16T07:43:11;11.60;99.90
23609;DHT22;11982;50.810;4.442;2023-05-16T07:45:37;11.60;99.90
23609;DHT22;11982;50.810;4.442;2023-05-16T07:48:03;11.70;99.90
23609;DHT22;11982;50.810;4.442;2023-05-16T07:50:29;11.50;99.90
23609;DHT22;11982;50.810;4.442;2023-05-16T07:52:54;11.40;99.90
23609;DHT22;11982;50.810;4.442;2023-05-16T07:55:20;11.30;99.90
23609;DHT22;11982;50.810;4.442;2023-05-16T07:57:47;11.30;99.90
23609;DHT22;11982;50.810;4.442;2023-05-16T08:00:13;11.20;99.90
23609;DHT22;11982;50.810;4.442;2023-05-16T08:02:39;11.20;99.90
23609;DHT22;11982;50.810;4.442;2023-05-16T08:05:06;11.10;99.90
23609;DHT22;11982;50.810;4.442;2023-05-16T08:07:32;11.20;99.90
23609;DHT22;11982;50.810;4.442;2023-05-16T08:09:58;11.40;99.90
23609;DHT22;11982;50.810;4.442;2023-05-16T08:12:23;11.50;99.90
23609;DHT22;11982;50.810;4.442;2023-05-16T08:14:49;11.40;99.90
23609;DHT22;11982;50.810;4.442;2023-05-16T08:17:15;11.40;99.90
23609;DHT22;11982;50.810;4.442;2023-05-16T08:19:40;11.40;99.90
23609;DHT22;11982;50.810;4.442;2023-05-16T08:22:08;11.40;99.90
23609;DHT22;11982;50.810;4.442;2023-05-16T08:24:34;11.70;99.90
23609;DHT22;11982;50.810;4.442;2023-05-16T08:27:00;11.70;99.90
23609;DHT22;11982;50.810;4.442;2023-05-16T08:29:26;11.80;99.90
23609;DHT22;11982;50.810;4.442;2023-05-16T08:31:52;11.90;99.90
23609;DHT22;11982;50.810;4.442;2023-05-16T08:34:17;12.10;99.90
23609;DHT22;11982;50.810;4.442;2023-05-16T08:36:43;12.20;99.90
23609;DHT22;11982;50.810;4.442;2023-05-16T08:39:09;12.10;99.90
23609;DHT22;11982;50.810;4.442;2023-05-16T08:41:38;12.20;99.90
23609;DHT22;11982;50.810;4.442;2023-05-16T08:44:04;12.30;99.90
23609;DHT22;11982;50.810;4.442;2023-05-16T08:46:31;12.50;99.90
23609;DHT22;11982;50.810;4.442;2023-05-16T08:48:58;12.40;99.90
23609;DHT22;11982;50.810;4.442;2023-05-16T08:51:26;12.40;99.90
23609;DHT22;11982;50.810;4.442;2023-05-16T08:54:11;12.50;99.90
23609;DHT22;11982;50.810;4.442;2023-05-16T08:56:40;12.40;99.90
23609;DHT22;11982;50.810;4.442;2023-05-16T08:59:06;12.40;99.90
23609;DHT22;11982;50.810;4.442;2023-05-16T09:01:33;12.50;99.90
23609;DHT22;11982;50.810;4.442;2023-05-16T09:03:59;12.60;99.90
23609;DHT22;11982;50.810;4.442;2023-05-16T09:06:27;12.90;99.90
23609;DHT22;11982;50.810;4.442;2023-05-16T09:08:53;13.10;99.90
23609;DHT22;11982;50.810;4.442;2023-05-16T09:11:19;13.20;99.90
23609;DHT22;11982;50.810;4.442;2023-05-16T09:13:46;13.30;99.90
23609;DHT22;11982;50.810;4.442;2023-05-16T09:16:14;13.60;99.90
23609;DHT22;11982;50.810;4.442;2023-05-16T09:18:43;13.60;99.90
23609;DHT22;11982;50.810;4.442;2023-05-16T09:21:10;13.40;99.90
23609;DHT22;11982;50.810;4.442;2023-05-16T09:23:36;13.60;99.90
23609;DHT22;11982;50.810;4.442;2023-05-16T09:26:04;13.60;99.90
23609;DHT22;11982;50.810;4.442;2023-05-16T09:28:31;13.50;99.90
23609;DHT22;11982;50.810;4.442;2023-05-16T09:30:57;13.50;99.90
23609;DHT22;11982;50.810;4.442;2023-05-16T09:33:27;13.20;99.90
23609;DHT22;11982;50.810;4.442;2023-05-16T09:35:55;12.80;99.90
23609;DHT22;11982;50.810;4.442;2023-05-16T09:38:21;13.00;99.90
23609;DHT22;11982;50.810;4.442;2023-05-16T09:40:47;13.20;99.90
23609;DHT22;11982;50.810;4.442;2023-05-16T09:43:16;13.10;99.90
23609;DHT22;11982;50.810;4.442;2023-05-16T09:45:45;13.20;99.90
23609;DHT22;11982;50.810;4.442;2023-05-16T09:48:13;13.10;99.90
23609;DHT22;11982;50.810;4.442;2023-05-16T09:50:40;13.10;99.90
23609;DHT22;11982;50.810;4.442;2023-05-16T09:53:12;13.20;99.90
23609;DHT22;11982;50.810;4.442;2023-05-16T09:55:38;13.40;99.90
23609;DHT22;11982;50.810;4.442;2023-05-16T09:58:04;13.50;99.90
23609;DHT22;11982;50.810;4.442;2023-05-16T10:00:31;13.30;99.90
23609;DHT22;11982;50.810;4.442;2023-05-16T10:02:58;13.60;99.90
23609;DHT22;11982;50.810;4.442;2023-05-16T10:05:26;13.90;99.90
23609;DHT22;11982;50.810;4.442;2023-05-16T10:07:55;14.20;99.90
23609;DHT22;11982;50.810;4.442;2023-05-16T10:10:22;14.30;99.90
23609;DHT22;11982;50.810;4.442;2023-05-16T10:12:50;14.30;99.90
23609;DHT22;11982;50.810;4.442;2023-05-16T10:15:16;14.50;99.90
23609;DHT22;11982;50.810;4.442;2023-05-16T10:17:44;14.60;99.90
23609;DHT22;11982;50.810;4.442;2023-05-16T10:20:15;14.40;99.90
23609;DHT22;11982;50.810;4.442;2023-05-16T10:22:45;14.40;99.90
23609;DHT22;11982;50.810;4.442;2023-05-16T10:27:55;14.60;99.90
23609;DHT22;11982;50.810;4.442;2023-05-16T10:30:22;14.70;99.90
23609;DHT22;11982;50.810;4.442;2023-05-16T10:32:49;14.90;99.90
23609;DHT22;11982;50.810;4.442;2023-05-16T10:35:16;14.60;99.90
23609;DHT22;11982;50.810;4.442;2023-05-16T10:37:42;14.60;99.90
23609;DHT22;11982;50.810;4.442;2023-05-16T10:40:09;14.50;99.90
23609;DHT22;11982;50.810;4.442;2023-05-16T10:42:35;14.50;99.90
23609;DHT22;11982;50.810;4.442;2023-05-16T10:45:19;14.30;99.90
23609;DHT22;11982;50.810;4.442;2023-05-16T10:48:02;14.10;99.90
23609;DHT22;11982;50.810;4.442;2023-05-16T10:50:37;14.00;99.90
23609;DHT22;11982;50.810;4.442;2023-05-16T11:12:00;15.40;99.90
23609;DHT22;11982;50.810;4.442;2023-05-16T11:14:40;14.90;99.90
23609;DHT22;11982;50.810;4.442;2023-05-16T11:17:13;15.30;99.90
23609;DHT22;11982;50.810;4.442;2023-05-16T11:19:50;15.50;99.90
23609;DHT22;11982;50.810;4.442;2023-05-16T11:25:03;16.00;99.90
23609;DHT22;11982;50.810;4.442;2023-05-16T11:32:34;15.90;99.90
23609;DHT22;11982;50.810;4.442;2023-05-16T11:35:00;15.70;99.90
23609;DHT22;11982;50.810;4.442;2023-05-16T11:37:29;15.50;99.90
23609;DHT22;11982;50.810;4.442;2023-05-16T11:40:02;15.30;99.90
23609;DHT22;11982;50.810;4.442;2023-05-16T11:42:37;15.30;99.90
23609;DHT22;11982;50.810;4.442;2023-05-16T11:45:08;15.70;99.90
23609;DHT22;11982;50.810;4.442;2023-05-16T11:47:38;15.90;99.90
23609;DHT22;11982;50.810;4.442;2023-05-16T11:50:26;15.80;99.90
23609;DHT22;11982;50.810;4.442;2023-05-16T11:52:52;15.60;99.90
23609;DHT22;11982;50.810;4.442;2023-05-16T11:55:23;15.50;99.90
23609;DHT22;11982;50.810;4.442;2023-05-16T11:57:53;15.20;99.90
23609;DHT22;11982;50.810;4.442;2023-05-16T12:00:21;15.00;99.90
23609;DHT22;11982;50.810;4.442;2023-05-16T12:02:48;15.50;99.90
23609;DHT22;11982;50.810;4.442;2023-05-16T12:05:16;15.80;99.90
23609;DHT22;11982;50.810;4.442;2023-05-16T12:07:43;15.90;99.90
23609;DHT22;11982;50.810;4.442;2023-05-16T12:10:10;16.00;99.90
23609;DHT22;11982;50.810;4.442;2023-05-16T12:12:38;15.90;99.90
23609;DHT22;11982;50.810;4.442;2023-05-16T12:15:05;15.80;99.90
23609;DHT22;11982;50.810;4.442;2023-05-16T12:17:32;15.90;99.90
23609;DHT22;11982;50.810;4.442;2023-05-16T12:19:59;15.50;99.90
23609;DHT22;11982;50.810;4.442;2023-05-16T12:22:25;15.60;99.90
23609;DHT22;11982;50.810;4.442;2023-05-16T12:24:51;15.90;99.90
23609;DHT22;11982;50.810;4.442;2023-05-16T12:27:25;16.20;99.90
23609;DHT22;11982;50.810;4.442;2023-05-16T12:29:51;16.50;99.90
23609;DHT22;11982;50.810;4.442;2023-05-16T12:32:20;16.10;99.90
23609;DHT22;11982;50.810;4.442;2023-05-16T12:34:49;16.00;99.90
23609;DHT22;11982;50.810;4.442;2023-05-16T12:37:20;16.10;99.90
23609;DHT22;11982;50.810;4.442;2023-05-16T12:39:46;16.00;99.90
23609;DHT22;11982;50.810;4.442;2023-05-16T12:42:13;15.90;99.90
23609;DHT22;11982;50.810;4.442;2023-05-16T12:44:39;15.60;99.90
23609;DHT22;11982;50.810;4.442;2023-05-16T12:47:14;15.50;99.90
23609;DHT22;11982;50.810;4.442;2023-05-16T12:49:47;15.60;99.90
23609;DHT22;11982;50.810;4.442;2023-05-16T12:52:20;15.90;99.90
23609;DHT22;11982;50.810;4.442;2023-05-16T12:54:46;16.10;99.90
23609;DHT22;11982;50.810;4.442;2023-05-16T12:57:13;16.10;99.90
23609;DHT22;11982;50.810;4.442;2023-05-16T12:59:38;16.00;99.90
23609;DHT22;11982;50.810;4.442;2023-05-16T13:02:04;15.80;99.90
23609;DHT22;11982;50.810;4.442;2023-05-16T13:04:30;15.90;99.90
23609;DHT22;11982;50.810;4.442;2023-05-16T13:06:56;15.80;99.90
23609;DHT22;11982;50.810;4.442;2023-05-16T13:09:22;15.80;99.90
23609;DHT22;11982;50.810;4.442;2023-05-16T13:11:48;15.90;99.90
23609;DHT22;11982;50.810;4.442;2023-05-16T13:14:15;15.90;99.90
23609;DHT22;11982;50.810;4.442;2023-05-16T13:16:43;16.10;99.90
23609;DHT22;11982;50.810;4.442;2023-05-16T13:19:09;16.40;99.90
23609;DHT22;11982;50.810;4.442;2023-05-16T13:21:35;16.50;99.90
23609;DHT22;11982;50.810;4.442;2023-05-16T13:24:00;16.60;99.90
23609;DHT22;11982;50.810;4.442;2023-05-16T13:26:26;16.30;99.90
23609;DHT22;11982;50.810;4.442;2023-05-16T13:28:52;16.20;99.90
23609;DHT22;11982;50.810;4.442;2023-05-16T13:31:20;16.30;99.90
23609;DHT22;11982;50.810;4.442;2023-05-16T13:33:46;16.00;99.90
23609;DHT22;11982;50.810;4.442;2023-05-16T13:36:13;16.20;99.90
23609;DHT22;11982;50.810;4.442;2023-05-16T13:38:38;17.00;99.90
23609;DHT22;11982;50.810;4.442;2023-05-16T13:41:05;16.80;99.90
23609;DHT22;11982;50.810;4.442;2023-05-16T13:43:30;16.80;99.90
23609;DHT22;11982;50.810;4.442;2023-05-16T13:45:56;16.70;99.90
23609;DHT22;11982;50.810;4.442;2023-05-16T13:48:22;17.10;99.90
23609;DHT22;11982;50.810;4.442;2023-05-16T13:50:47;17.10;99.90
23609;DHT22;11982;50.810;4.442;2023-05-16T13:53:13;16.50;99.90
23609;DHT22;11982;50.810;4.442;2023-05-16T13:55:39;16.40;99.90
23609;DHT22;11982;50.810;4.442;2023-05-16T13:58:04;17.00;99.90
23609;DHT22;11982;50.810;4.442;2023-05-16T14:00:30;17.80;99.90
23609;DHT22;11982;50.810;4.442;2023-05-16T14:02:56;18.50;99.90
23609;DHT22;11982;50.810;4.442;2023-05-16T14:05:22;18.90;99.90
23609;DHT22;11982;50.810;4.442;2023-05-16T14:07:47;18.40;99.90
23609;DHT22;11982;50.810;4.442;2023-05-16T14:10:13;18.00;99.90
23609;DHT22;11982;50.810;4.442;2023-05-16T14:12:39;18.30;99.90
23609;DHT22;11982;50.810;4.442;2023-05-16T14:15:05;17.80;99.90
23609;DHT22;11982;50.810;4.442;2023-05-16T14:17:31;18.00;99.90
23609;DHT22;11982;50.810;4.442;2023-05-16T14:19:57;17.70;99.90
23609;DHT22;11982;50.810;4.442;2023-05-16T14:22:23;17.30;99.90
23609;DHT22;11982;50.810;4.442;2023-05-16T14:24:48;16.70;99.90
23609;DHT22;11982;50.810;4.442;2023-05-16T14:27:14;16.90;99.90
23609;DHT22;11982;50.810;4.442;2023-05-16T14:29:41;16.80;99.90
23609;DHT22;11982;50.810;4.442;2023-05-16T14:32:08;17.20;99.90
23609;DHT22;11982;50.810;4.442;2023-05-16T14:34:35;17.30;99.90
23609;DHT22;11982;50.810;4.442;2023-05-16T14:37:01;17.20;99.90
23609;DHT22;11982;50.810;4.442;2023-05-16T14:39:26;17.00;99.90
23609;DHT22;11982;50.810;4.442;2023-05-16T14:41:52;17.10;99.90
23609;DHT22;11982;50.810;4.442;2023-05-16T14:44:18;16.80;99.90
23609;DHT22;11982;50.810;4.442;2023-05-16T14:46:46;16.20;99.90
23609;DHT22;11982;50.810;4.442;2023-05-16T14:49:11;16.80;99.90
23609;DHT22;11982;50.810;4.442;2023-05-16T14:51:37;16.80;99.90
23609;DHT22;11982;50.810;4.442;2023-05-16T14:54:03;16.60;99.90
23609;DHT22;11982;50.810;4.442;2023-05-16T14:56:30;16.00;99.90
23609;DHT22;11982;50.810;4.442;2023-05-16T14:58:56;16.10;99.90
23609;DHT22;11982;50.810;4.442;2023-05-16T15:01:22;16.00;99.90
23609;DHT22;11982;50.810;4.442;2023-05-16T15:03:47;16.20;99.90
23609;DHT22;11982;50.810;4.442;2023-05-16T15:06:13;16.20;99.90
23609;DHT22;11982;50.810;4.442;2023-05-16T15:08:39;15.80;99.90
23609;DHT22;11982;50.810;4.442;2023-05-16T15:11:04;16.00;99.90
23609;DHT22;11982;50.810;4.442;2023-05-16T15:13:30;16.00;99.90
23609;DHT22;11982;50.810;4.442;2023-05-16T15:15:56;16.00;99.90
23609;DHT22;11982;50.810;4.442;2023-05-16T15:18:22;15.80;99.90
23609;DHT22;11982;50.810;4.442;2023-05-16T15:20:48;15.70;99.90
23609;DHT22;11982;50.810;4.442;2023-05-16T15:23:16;15.90;99.90
23609;DHT22;11982;50.810;4.442;2023-05-16T15:25:42;16.00;99.90
23609;DHT22;11982;50.810;4.442;2023-05-16T15:28:09;16.10;99.90
23609;DHT22;11982;50.810;4.442;2023-05-16T15:30:35;16.10;99.90
23609;DHT22;11982;50.810;4.442;2023-05-16T15:33:00;16.00;99.90
23609;DHT22;11982;50.810;4.442;2023-05-16T15:35:26;16.00;99.90
23609;DHT22;11982;50.810;4.442;2023-05-16T15:37:52;16.00;99.90
23609;DHT22;11982;50.810;4.442;2023-05-16T15:40:18;16.10;99.90
23609;DHT22;11982;50.810;4.442;2023-05-16T15:42:43;16.00;99.90
23609;DHT22;11982;50.810;4.442;2023-05-16T15:45:10;16.10;99.90
23609;DHT22;11982;50.810;4.442;2023-05-16T15:47:36;15.70;99.90
23609;DHT22;11982;50.810;4.442;2023-05-16T15:50:03;15.60;99.90
23609;DHT22;11982;50.810;4.442;2023-05-16T15:52:28;15.60;99.90
23609;DHT22;11982;50.810;4.442;2023-05-16T15:54:54;15.70;99.90
23609;DHT22;11982;50.810;4.442;2023-05-16T15:57:20;15.70;99.90
23609;DHT22;11982;50.810;4.442;2023-05-16T15:59:46;15.60;99.90
23609;DHT22;11982;50.810;4.442;2023-05-16T16:02:11;15.60;99.90
23609;DHT22;11982;50.810;4.442;2023-05-16T16:04:37;15.60;99.90
23609;DHT22;11982;50.810;4.442;2023-05-16T16:07:03;15.60;99.90
23609;DHT22;11982;50.810;4.442;2023-05-16T16:09:28;15.60;99.90
23609;DHT22;11982;50.810;4.442;2023-05-16T16:11:54;15.60;99.90
23609;DHT22;11982;50.810;4.442;2023-05-16T16:14:23;15.50;99.90
23609;DHT22;11982;50.810;4.442;2023-05-16T16:16:49;15.20;99.90
23609;DHT22;11982;50.810;4.442;2023-05-16T16:19:16;14.90;99.90